createdAt,value
2019-01-21T00:00:15.611Z,60.30
2019-01-21T00:02:44.129Z,60.40
2019-01-21T00:05:12.623Z,60.70
2019-01-21T00:07:41.089Z,60.10
2019-01-21T00:10:09.591Z,60.40
2019-01-21T00:12:38.045Z,60.60
2019-01-21T00:15:08.506Z,60.50
2019-01-21T00:17:36.930Z,61.00
2019-01-21T00:20:06.902Z,60.30
2019-01-21T00:22:35.329Z,60.30
2019-01-21T00:25:04.940Z,60.40
2019-01-21T00:27:33.374Z,61.10
2019-01-21T00:30:01.846Z,61.00
2019-01-21T00:32:30.272Z,60.40
2019-01-21T00:34:58.707Z,61.30
2019-01-21T00:37:27.130Z,60.80
2019-01-21T00:39:55.575Z,60.40
2019-01-21T00:42:24.010Z,60.30
2019-01-21T00:44:52.454Z,60.10
2019-01-21T00:47:20.878Z,60.00
2019-01-21T00:49:49.356Z,60.10
2019-01-21T00:52:17.767Z,60.20
2019-01-21T00:54:46.213Z,60.80
2019-01-21T00:57:14.644Z,60.30
2019-01-21T00:59:43.095Z,60.30
2019-01-21T01:02:11.608Z,60.40
2019-01-21T01:04:41.563Z,60.20
2019-01-21T01:07:09.959Z,60.90
2019-01-21T01:09:38.386Z,60.30
2019-01-21T01:12:06.919Z,60.50
2019-01-21T01:14:35.375Z,60.20
2019-01-21T01:17:03.939Z,60.80
2019-01-21T01:19:32.392Z,60.80
2019-01-21T01:22:00.840Z,60.30
2019-01-21T01:24:29.271Z,60.70
2019-01-21T01:26:57.727Z,60.40
2019-01-21T01:29:26.214Z,60.20
2019-01-21T01:31:54.671Z,60.40
2019-01-21T01:34:23.094Z,59.20
2019-01-21T01:36:51.535Z,60.60
2019-01-21T01:39:19.963Z,60.30
2019-01-21T01:41:48.407Z,60.40
2019-01-21T01:44:16.829Z,60.60
2019-01-21T01:46:45.659Z,60.50
2019-01-21T01:49:14.096Z,60.70
2019-01-21T01:51:42.547Z,60.20
2019-01-21T01:54:11.137Z,60.20
2019-01-21T01:56:39.596Z,60.80
2019-01-21T01:59:08.405Z,59.90
2019-01-21T02:04:05.182Z,60.00
2019-01-21T02:06:33.627Z,60.70
2019-01-21T02:09:02.147Z,60.10
2019-01-21T02:11:30.657Z,59.40
2019-01-21T02:13:59.154Z,59.10
2019-01-21T02:16:27.578Z,60.40
2019-01-21T02:18:56.027Z,60.30
2019-01-21T02:21:26.795Z,60.40
2019-01-21T02:23:58.367Z,59.80
2019-01-21T02:26:29.896Z,60.60
2019-01-21T02:29:01.460Z,60.40
2019-01-21T02:31:38.652Z,60.60
2019-01-21T02:34:34.552Z,60.50
2019-01-21T02:37:14.641Z,60.50
2019-01-21T02:40:02.759Z,60.60
2019-01-21T02:42:54.890Z,60.70
2019-01-21T02:45:41.730Z,60.10
2019-01-21T02:48:15.804Z,60.20
2019-01-21T02:50:56.232Z,60.70
2019-01-21T02:53:36.461Z,60.90
2019-01-21T02:56:17.068Z,60.70
2019-01-21T02:59:00.640Z,60.80
2019-01-21T03:01:47.921Z,60.20
2019-01-21T03:04:38.760Z,60.50
2019-01-21T03:07:16.455Z,60.50
2019-01-21T03:09:53.513Z,60.60
2019-01-21T03:12:42.607Z,60.10
2019-01-21T03:15:26.243Z,60.10
2019-01-21T03:18:31.550Z,60.60
2019-01-21T03:21:17.890Z,61.00
2019-01-21T03:24:16.803Z,61.40
2019-01-21T03:27:00.450Z,61.30
2019-01-21T03:29:53.079Z,61.10
2019-01-21T03:32:53.084Z,60.40
2019-01-21T03:35:30.632Z,60.60
2019-01-21T03:38:23.428Z,60.60
2019-01-21T03:41:03.565Z,60.70
2019-01-21T03:43:47.134Z,60.90
2019-01-21T03:46:45.791Z,60.30
2019-01-21T03:49:20.296Z,60.80
2019-01-21T03:52:20.668Z,60.80
2019-01-21T03:54:50.241Z,60.80
2019-01-21T03:57:24.644Z,60.20
2019-01-21T03:59:56.191Z,60.10
2019-01-21T04:02:30.414Z,60.50
2019-01-21T04:05:11.043Z,60.40
2019-01-21T04:07:45.408Z,60.50
2019-01-21T04:10:38.202Z,60.60
2019-01-21T04:13:15.676Z,60.70
2019-01-21T04:15:59.146Z,61.10
2019-01-21T04:18:36.341Z,61.30
2019-01-21T04:21:24.663Z,60.80
2019-01-21T04:24:17.379Z,60.60
2019-01-21T04:27:15.557Z,61.10
2019-01-21T04:30:01.923Z,60.50
2019-01-21T04:32:54.626Z,60.20
2019-01-21T04:35:38.023Z,60.30
2019-01-21T04:38:30.237Z,60.60
2019-01-21T04:41:18.671Z,61.50
2019-01-21T04:44:01.756Z,60.90
2019-01-21T04:47:06.731Z,60.80
2019-01-21T04:49:59.466Z,60.90
2019-01-21T04:52:42.787Z,61.70
2019-01-21T04:55:23.030Z,61.10
2019-01-21T04:58:10.989Z,61.30
2019-01-21T05:01:00.483Z,61.60
2019-01-21T05:03:49.938Z,61.00
2019-01-21T05:06:36.871Z,61.00
2019-01-21T05:09:20.626Z,61.30
2019-01-21T05:12:09.101Z,61.00
2019-01-21T05:14:58.811Z,60.90
2019-01-21T05:17:49.750Z,61.20
2019-01-21T05:20:26.455Z,61.30
2019-01-21T05:23:15.836Z,61.10
2019-01-21T05:25:53.159Z,61.20
2019-01-21T05:28:47.224Z,61.10
2019-01-21T05:31:30.482Z,61.10
2019-01-21T05:34:04.668Z,61.10
2019-01-21T05:36:36.215Z,61.40
2019-01-21T05:39:29.334Z,61.20
2019-01-21T05:42:28.042Z,62.00
2019-01-21T05:45:20.052Z,61.30
2019-01-21T05:48:03.771Z,61.10
2019-01-21T05:50:47.341Z,61.10
2019-01-21T05:53:27.720Z,61.30
2019-01-21T05:56:17.031Z,61.70
2019-01-21T05:58:48.632Z,62.00
2019-01-21T06:01:36.948Z,61.80
2019-01-21T06:04:10.969Z,61.60
2019-01-21T06:06:42.455Z,61.10
2019-01-21T06:09:22.893Z,62.00
2019-01-21T06:11:57.091Z,61.40
2019-01-21T06:14:57.288Z,61.60
2019-01-21T06:17:53.130Z,61.80
2019-01-21T06:20:36.464Z,61.60
2019-01-21T06:23:14.110Z,61.40
2019-01-21T06:26:03.713Z,61.70
2019-01-21T06:28:54.876Z,61.80
2019-01-21T06:31:41.463Z,61.50
2019-01-21T06:34:35.790Z,61.80
2019-01-21T06:37:22.131Z,62.90
2019-01-21T06:40:19.267Z,63.10
2019-01-21T06:42:56.640Z,62.50
2019-01-21T06:45:55.498Z,62.70
2019-01-21T06:49:04.611Z,62.70
2019-01-21T06:51:53.072Z,63.00
2019-01-21T06:54:47.430Z,62.60
2019-01-21T06:57:27.535Z,63.00
2019-01-21T07:00:23.527Z,63.30
2019-01-21T07:02:57.698Z,63.20
2019-01-21T07:05:40.865Z,63.20
2019-01-21T07:08:18.466Z,63.50
2019-01-21T07:10:53.003Z,63.40
2019-01-21T07:13:39.442Z,63.40
2019-01-21T07:16:30.770Z,63.20
2019-01-21T07:19:25.054Z,63.40
2019-01-21T07:22:18.058Z,63.60
2019-01-21T07:25:01.365Z,63.00
2019-01-21T07:27:47.823Z,63.10
2019-01-21T07:30:48.223Z,62.90
2019-01-21T07:33:48.774Z,63.20
2019-01-21T07:36:32.331Z,63.00
2019-01-21T07:39:18.835Z,63.20
2019-01-21T07:42:04.841Z,63.60
2019-01-21T07:44:45.426Z,63.20
2019-01-21T07:47:19.912Z,63.00
2019-01-21T07:49:57.378Z,63.10
2019-01-21T07:52:40.618Z,63.00
2019-01-21T07:55:31.722Z,62.90
2019-01-21T07:58:19.683Z,62.90
2019-01-21T08:01:02.980Z,62.70
2019-01-21T08:03:49.746Z,62.70
2019-01-21T08:06:40.586Z,62.10
2019-01-21T08:09:20.681Z,62.30
2019-01-21T08:12:09.689Z,62.00
2019-01-21T08:14:53.266Z,61.90
2019-01-21T08:17:41.601Z,61.70
2019-01-21T08:20:34.451Z,61.90
2019-01-21T08:23:08.644Z,62.00
2019-01-21T08:25:57.692Z,61.40
2019-01-21T08:28:44.278Z,61.20
2019-01-21T08:31:30.781Z,61.10
2019-01-21T08:34:14.155Z,61.10
2019-01-21T08:36:51.494Z,61.20
2019-01-21T08:39:39.687Z,61.40
2019-01-21T08:42:35.335Z,61.50
2019-01-21T08:45:25.271Z,61.00
2019-01-21T08:47:59.684Z,60.40
2019-01-21T08:50:43.093Z,60.70
2019-01-21T08:53:25.875Z,60.70
2019-01-21T08:56:03.530Z,60.80
2019-01-21T08:58:53.363Z,60.30
2019-01-21T09:01:36.729Z,60.50
2019-01-21T09:04:27.579Z,59.80
2019-01-21T09:07:10.802Z,59.30
2019-01-21T09:09:45.173Z,60.50
2019-01-21T09:12:19.239Z,60.10
2019-01-21T09:15:05.334Z,60.20
2019-01-21T09:17:40.006Z,59.50
2019-01-21T09:20:39.825Z,60.00
2019-01-21T09:23:47.751Z,59.10
2019-01-21T09:26:24.559Z,58.90
2019-01-21T09:29:14.119Z,57.60
2019-01-21T09:32:06.227Z,58.90
2019-01-21T09:34:54.278Z,58.50
2019-01-21T09:37:34.863Z,57.90
2019-01-21T09:40:18.672Z,57.80
2019-01-21T09:42:52.883Z,57.40
2019-01-21T09:45:50.306Z,58.70
2019-01-21T09:48:17.691Z,59.10
2019-01-21T09:50:47.462Z,58.50
2019-01-21T09:53:16.115Z,58.70
2019-01-21T09:55:47.650Z,57.30
2019-01-21T09:58:16.547Z,58.00
2019-01-21T10:00:45.068Z,57.60
2019-01-21T10:03:13.854Z,59.00
2019-01-21T10:05:45.366Z,56.80
2019-01-21T10:08:19.503Z,58.30
2019-01-21T10:11:10.287Z,56.50
2019-01-21T10:13:47.462Z,57.60
2019-01-21T10:16:38.407Z,56.90
2019-01-21T10:19:24.974Z,57.40
2019-01-21T10:22:08.218Z,58.10
2019-01-21T10:24:57.551Z,57.20
2019-01-21T10:27:37.901Z,58.70
2019-01-21T10:30:25.883Z,56.10
2019-01-21T10:32:59.979Z,56.40
2019-01-21T10:35:49.199Z,55.30
2019-01-21T10:38:55.542Z,57.10
2019-01-21T10:41:27.083Z,57.10
2019-01-21T10:44:01.162Z,55.60
2019-01-21T10:46:38.281Z,55.60
2019-01-21T10:49:15.522Z,56.10
2019-01-21T10:51:49.640Z,56.30
2019-01-21T10:54:32.954Z,57.70
2019-01-21T10:57:33.502Z,57.10
2019-01-21T11:00:38.218Z,56.50
2019-01-21T11:03:12.594Z,57.30
2019-01-21T11:05:46.777Z,57.90
2019-01-21T11:08:33.616Z,56.90
2019-01-21T11:11:05.130Z,56.10
2019-01-21T11:13:42.600Z,54.90
2019-01-21T11:16:16.858Z,55.10
2019-01-21T11:18:54.363Z,54.50
2019-01-21T11:21:28.480Z,54.80
2019-01-21T11:24:14.478Z,55.60
2019-01-21T11:27:14.834Z,54.20
2019-01-21T11:29:54.859Z,57.20
2019-01-21T11:32:32.194Z,55.30
2019-01-21T11:35:15.114Z,55.50
2019-01-21T11:38:01.399Z,54.60
2019-01-21T11:40:42.054Z,54.30
2019-01-21T11:43:13.631Z,55.30
2019-01-21T11:45:45.287Z,56.40
2019-01-21T11:48:33.566Z,55.70
2019-01-21T11:51:27.675Z,54.30
2019-01-21T11:54:11.071Z,54.40
2019-01-21T11:56:51.846Z,55.00
2019-01-21T11:59:29.071Z,54.70
2019-01-21T12:02:06.576Z,54.50
2019-01-21T12:04:46.865Z,53.90
2019-01-21T12:07:26.839Z,53.80
2019-01-21T12:10:19.455Z,53.80
2019-01-21T12:13:07.243Z,56.10
2019-01-21T12:16:00.805Z,54.20
2019-01-21T12:18:35.235Z,55.60
2019-01-21T12:21:12.935Z,54.40
2019-01-21T12:23:44.445Z,54.60
2019-01-21T12:26:24.786Z,55.70
2019-01-21T12:29:08.103Z,55.70
2019-01-21T12:32:00.923Z,55.10
2019-01-21T12:34:32.482Z,54.90
2019-01-21T12:37:04.024Z,54.70
2019-01-21T12:39:47.499Z,54.50
2019-01-21T12:42:19.139Z,57.20
2019-01-21T12:44:56.119Z,54.90
2019-01-21T12:47:33.637Z,55.50
2019-01-21T12:50:37.095Z,56.10
2019-01-21T12:53:17.559Z,56.00
2019-01-21T12:56:07.015Z,55.80
2019-01-21T12:59:06.108Z,56.10
2019-01-21T13:01:46.614Z,56.40
2019-01-21T13:04:24.031Z,56.40
2019-01-21T13:07:01.475Z,56.80
2019-01-21T13:09:52.418Z,56.80
2019-01-21T13:12:40.373Z,56.50
2019-01-21T13:15:29.974Z,55.50
2019-01-21T13:18:07.169Z,57.40
2019-01-21T13:20:53.484Z,56.10
2019-01-21T13:23:30.971Z,57.00
2019-01-21T13:26:19.508Z,56.20
2019-01-21T13:29:09.051Z,56.40
2019-01-21T13:31:40.639Z,57.20
2019-01-21T13:34:12.195Z,58.60
2019-01-21T13:37:00.280Z,58.40
2019-01-21T13:39:48.397Z,58.40
2019-01-21T13:42:19.930Z,57.60
2019-01-21T13:44:54.119Z,58.60
2019-01-21T13:47:34.263Z,58.90
2019-01-21T13:50:28.253Z,58.30
2019-01-21T13:53:11.086Z,57.50
2019-01-21T13:55:42.647Z,57.60
2019-01-21T13:58:34.030Z,57.30
2019-01-21T14:01:14.198Z,58.00
2019-01-21T14:03:57.867Z,57.70
2019-01-21T14:06:49.843Z,57.10
2019-01-21T14:09:39.465Z,57.20
2019-01-21T14:12:30.720Z,59.00
2019-01-21T14:15:08.094Z,58.70
2019-01-21T14:17:45.185Z,58.30
2019-01-21T14:20:22.242Z,58.70
2019-01-21T14:23:17.979Z,59.00
2019-01-21T14:26:09.892Z,59.00
2019-01-21T14:29:00.854Z,57.70
2019-01-21T14:31:50.354Z,58.70
2019-01-21T14:34:38.639Z,59.30
2019-01-21T14:37:28.300Z,58.40
2019-01-21T14:40:02.646Z,59.60
2019-01-21T14:42:35.222Z,59.00
2019-01-21T14:45:23.155Z,59.20
2019-01-21T14:47:56.324Z,60.20
2019-01-21T14:50:43.094Z,60.10
2019-01-21T14:53:29.654Z,60.00
2019-01-21T14:56:09.552Z,60.30
2019-01-21T14:58:57.542Z,60.20
2019-01-21T15:01:31.717Z,60.20
2019-01-21T15:04:09.202Z,60.30
2019-01-21T15:07:01.751Z,60.60
2019-01-21T15:09:45.391Z,60.50
2019-01-21T15:12:19.695Z,60.30
2019-01-21T15:15:05.896Z,60.50
2019-01-21T15:17:49.474Z,60.50
2019-01-21T15:20:21.047Z,60.50
2019-01-21T15:23:07.444Z,60.60
2019-01-21T15:25:53.692Z,60.00
2019-01-21T15:28:39.002Z,60.00
2019-01-21T15:31:19.138Z,60.00
2019-01-21T15:34:09.068Z,60.00
2019-01-21T15:36:55.459Z,60.10
2019-01-21T15:39:32.870Z,59.40
2019-01-21T15:42:07.135Z,60.10
2019-01-21T15:44:41.510Z,59.90
2019-01-21T15:47:31.257Z,59.10
2019-01-21T15:50:21.155Z,58.20
2019-01-21T15:53:07.538Z,60.00
2019-01-21T15:55:50.320Z,59.20
2019-01-21T15:58:24.695Z,59.30
2019-01-21T16:01:05.127Z,59.60
2019-01-21T16:03:51.788Z,60.00
2019-01-21T16:06:41.579Z,60.10
2019-01-21T16:09:16.042Z,60.00
2019-01-21T16:11:50.239Z,58.90
2019-01-21T16:14:21.281Z,58.40
2019-01-21T16:17:16.964Z,57.30
2019-01-21T16:19:45.487Z,60.00
2019-01-21T16:22:35.007Z,57.70
2019-01-21T16:25:09.016Z,57.70
2019-01-21T16:27:57.167Z,57.80
2019-01-21T16:30:31.402Z,58.80
2019-01-21T16:33:26.907Z,59.30
2019-01-21T16:36:31.684Z,59.40
2019-01-21T16:39:04.420Z,58.90
2019-01-21T16:41:52.607Z,59.20
2019-01-21T16:44:21.072Z,59.60
2019-01-21T16:46:49.591Z,59.60
2019-01-21T16:49:18.071Z,59.60
2019-01-21T16:51:46.531Z,58.40
2019-01-21T16:54:15.046Z,57.60
2019-01-21T16:56:43.484Z,57.30
2019-01-21T16:59:11.962Z,60.10
2019-01-21T17:01:40.384Z,59.00
2019-01-21T17:04:08.926Z,60.10
2019-01-21T17:06:39.591Z,60.30
2019-01-21T17:09:10.224Z,60.30
2019-01-21T17:11:38.718Z,60.50
2019-01-21T17:14:08.825Z,60.30
2019-01-21T17:16:37.276Z,60.00
2019-01-21T17:19:05.884Z,59.40
2019-01-21T17:24:04.268Z,58.60
2019-01-21T17:26:32.872Z,60.00
2019-01-21T17:29:01.301Z,59.30
2019-01-21T17:31:29.764Z,58.70
2019-01-21T17:33:58.200Z,57.90
2019-01-21T18:09:08.378Z,60.20
2019-01-21T18:11:41.311Z,60.30
2019-01-21T18:14:07.266Z,60.20
2019-01-21T18:16:35.717Z,60.50
2019-01-21T18:19:04.635Z,60.30
2019-01-21T18:21:33.099Z,60.40
2019-01-21T18:24:01.602Z,60.10
2019-01-21T18:26:30.103Z,59.90
2019-01-21T18:28:58.642Z,59.50
2019-01-21T18:31:27.100Z,58.70
2019-01-21T18:33:55.556Z,58.50
2019-01-21T18:36:24.078Z,58.20
2019-01-21T18:38:52.536Z,58.00
2019-01-21T18:41:20.991Z,57.20
2019-01-21T18:43:49.503Z,56.20
2019-01-21T18:46:17.979Z,56.40
2019-01-21T18:48:46.594Z,56.80
2019-01-21T18:51:15.107Z,56.50
2019-01-21T18:53:43.566Z,56.70
2019-01-21T18:56:11.996Z,57.50
2019-01-21T18:58:41.220Z,57.60
2019-01-21T19:01:09.639Z,56.60
2019-01-21T19:03:38.182Z,57.90
2019-01-21T19:06:06.705Z,58.20
2019-01-21T19:08:35.242Z,57.90
2019-01-21T19:11:03.678Z,58.50
2019-01-21T19:13:32.135Z,57.30
2019-01-21T19:16:00.604Z,57.00
2019-01-21T19:18:29.043Z,57.40
2019-01-21T19:20:57.646Z,56.40
2019-01-21T19:23:26.164Z,55.90
2019-01-21T19:25:54.650Z,55.60
2019-01-21T19:28:23.157Z,56.20
2019-01-21T19:30:51.773Z,56.10
2019-01-21T19:33:20.199Z,57.70
2019-01-21T19:35:48.825Z,58.20
2019-01-21T19:38:17.258Z,58.00
2019-01-21T19:40:45.720Z,59.00
2019-01-21T19:43:14.158Z,59.40
2019-01-21T19:45:43.318Z,59.20
2019-01-21T19:48:12.017Z,59.00
2019-01-21T19:50:40.469Z,59.70
2019-01-21T19:53:08.935Z,59.50
2019-01-21T19:55:39.704Z,60.10
2019-01-21T19:58:08.916Z,60.00
2019-01-21T20:00:37.816Z,60.40
2019-01-21T20:03:08.091Z,60.60
2019-01-21T20:05:36.764Z,60.50
2019-01-21T20:08:05.337Z,60.60
2019-01-21T20:10:33.854Z,60.20
2019-01-21T20:13:02.484Z,60.30
2019-01-21T20:15:31.025Z,60.70
2019-01-21T20:17:59.624Z,60.90
2019-01-21T20:20:33.809Z,60.70
2019-01-21T20:23:02.422Z,60.50
2019-01-21T20:25:30.851Z,60.80
2019-01-21T20:27:59.423Z,60.00
2019-01-21T20:30:27.867Z,60.30
2019-01-21T20:32:56.393Z,60.30
2019-01-21T20:35:24.929Z,60.20
2019-01-21T20:37:53.453Z,60.20
2019-01-21T20:40:24.497Z,60.20
2019-01-21T20:42:53.140Z,60.00
2019-01-21T20:45:21.866Z,58.70
2019-01-21T20:47:50.625Z,59.30
2019-01-21T20:50:24.710Z,59.80
2019-01-21T20:52:54.072Z,60.00
2019-01-21T20:55:22.583Z,59.80
2019-01-21T20:57:51.108Z,59.00
2019-01-21T21:00:21.878Z,59.20
2019-01-21T21:02:51.931Z,58.60
2019-01-21T21:05:20.461Z,58.50
2019-01-21T21:07:48.998Z,58.90
2019-01-21T21:10:19.810Z,60.10
2019-01-21T21:12:48.262Z,60.20
2019-01-21T21:15:20.180Z,60.40
2019-01-21T21:17:48.682Z,60.40
2019-01-21T21:20:17.302Z,60.00
2019-01-21T21:22:45.806Z,58.40
2019-01-21T21:25:19.577Z,57.40
2019-01-21T21:27:48.150Z,58.00
2019-01-21T21:30:20.040Z,58.00
2019-01-21T21:32:48.559Z,57.20
2019-01-21T21:35:17.079Z,57.60
2019-01-21T21:37:45.520Z,57.60
2019-01-21T21:40:22.104Z,58.50
2019-01-21T21:42:50.541Z,59.30
2019-01-21T21:45:21.225Z,59.30
2019-01-21T21:47:50.094Z,60.00
2019-01-21T21:50:24.603Z,60.60
2019-01-21T21:52:53.171Z,60.70
2019-01-21T21:55:21.650Z,61.00
2019-01-21T21:57:50.096Z,60.80
2019-01-21T22:00:24.779Z,61.00
2019-01-21T22:02:53.278Z,60.90
2019-01-21T22:05:22.046Z,61.00
2019-01-21T22:07:50.707Z,60.70
2019-01-21T22:10:24.475Z,60.50
2019-01-21T22:12:53.020Z,60.10
2019-01-21T22:15:23.084Z,60.70
2019-01-21T22:17:51.527Z,61.00
2019-01-21T22:20:21.808Z,60.90
2019-01-21T22:22:50.363Z,61.00
2019-01-21T22:25:19.240Z,61.00
2019-01-21T22:27:47.834Z,60.90
2019-01-21T22:30:21.566Z,61.00
2019-01-21T22:32:50.168Z,60.30
2019-01-21T22:35:18.667Z,60.40
2019-01-21T22:37:47.386Z,60.20
2019-01-21T22:40:20.556Z,60.30
2019-01-21T22:42:49.287Z,60.60
2019-01-21T22:45:18.960Z,60.70
2019-01-21T22:47:47.409Z,60.80
2019-01-21T22:50:17.365Z,60.70
2019-01-21T22:52:45.956Z,60.60
2019-01-21T22:55:15.936Z,60.40
2019-01-21T22:57:44.570Z,60.20
2019-01-21T23:00:32.892Z,60.20
2019-01-21T23:03:01.353Z,60.20
2019-01-21T23:05:29.779Z,60.30
2019-01-21T23:07:58.307Z,60.30
2019-01-21T23:10:26.802Z,59.80
2019-01-21T23:12:55.698Z,60.00
2019-01-21T23:15:24.122Z,59.20
2019-01-21T23:17:52.642Z,60.00
2019-01-21T23:20:21.200Z,59.40
2019-01-21T23:22:49.962Z,59.70
2019-01-21T23:25:18.496Z,60.10
2019-01-21T23:27:46.994Z,58.70
2019-01-21T23:30:18.483Z,59.00
2019-01-21T23:32:46.906Z,59.80
2019-01-21T23:35:15.452Z,60.60
2019-01-21T23:37:43.931Z,60.50
2019-01-21T23:40:13.186Z,60.50
2019-01-21T23:42:41.784Z,60.50
2019-01-21T23:45:11.375Z,60.40
2019-01-21T23:47:39.823Z,59.60
2019-01-21T23:50:11.479Z,59.50
2019-01-21T23:52:40.278Z,59.50
2019-01-21T23:55:10.662Z,60.00
2019-01-21T23:57:39.099Z,59.90
